Search for airport 
image banner adimage banner adimage banner ad
image banner ad

L77 - Chiriaco Summit

Located in Chiriaco Summit, United States

ICAO - L77, IATA -

Data provided by Airmate  

General information

Coordinates: N33°39'53" W115°42'37"
Elevation is 1711 feet MSL.
Magnetic variation is 13° East
View others Airports in California

Operational data

Special qualification required
Current time UTC:
Current local time:
Weather at : KTRM - Jacqueline Cochran Rgnl ( 42 km )
METAR: KTRM 240752Z AUTO 33011KT 10SM CLR 29/13 A2981 RMK AO2 SLP098 T02940128 404000272
TAF: KTRM 240520Z 2406/2506 33010KT P6SM SCT200 FM241300 33007KT P6SM SKC FM242100 17010G17KT P6SM SKC FM250200 33019G26KT P6SM SCT250
View NOTAMs / SUP AIP / TFR affecting this airport [VIEW]
Communications frequencies: [VIEW]

Runways:

RWY identifierQFULength (ft)Width (ft)SurfaceLDA (ft)
06400050ASPH
24400050ASPH

Airport contact information

Address: Chiriaco Summit United States

Satellite view of L77